createdAt,value
2023-08-25T00:00:46.925Z,23.20
2023-08-25T00:03:14.169Z,23.20
2023-08-25T00:05:42.213Z,23.10
2023-08-25T00:08:09.491Z,23.10
2023-08-25T00:10:36.834Z,23.10
2023-08-25T00:13:04.193Z,23.10
2023-08-25T00:15:33.789Z,23.00
2023-08-25T00:18:01.422Z,23.00
2023-08-25T00:20:29.969Z,23.00
2023-08-25T00:22:57.271Z,23.00
2023-08-25T00:25:24.536Z,23.00
2023-08-25T00:27:52.131Z,23.00
2023-08-25T00:30:19.680Z,22.90
2023-08-25T00:32:46.999Z,22.90
2023-08-25T00:35:14.112Z,22.90
2023-08-25T00:37:41.567Z,22.90
2023-08-25T00:40:09.741Z,22.80
2023-08-25T00:42:37.099Z,22.80
2023-08-25T00:45:05.181Z,22.80
2023-08-25T00:47:32.827Z,22.80
2023-08-25T00:50:00.620Z,22.80
2023-08-25T00:52:28.155Z,22.80
2023-08-25T00:54:58.107Z,22.80
2023-08-25T00:57:26.101Z,22.70
2023-08-25T00:59:53.660Z,22.70
2023-08-25T01:02:21.332Z,22.70
2023-08-25T01:04:48.532Z,22.70
2023-08-25T01:07:15.789Z,22.70
2023-08-25T01:09:43.754Z,22.70
2023-08-25T01:12:40.989Z,22.70
2023-08-25T01:15:27.625Z,22.70
2023-08-25T01:18:12.704Z,22.70
2023-08-25T01:20:41.691Z,22.60
2023-08-25T01:23:28.821Z,22.60
2023-08-25T01:25:57.413Z,22.60
2023-08-25T01:28:27.397Z,22.60
2023-08-25T01:30:56.774Z,22.60
2023-08-25T01:33:26.180Z,22.60
2023-08-25T01:36:02.088Z,22.60
2023-08-25T01:38:38.821Z,22.60
2023-08-25T01:41:16.216Z,22.60
2023-08-25T01:44:05.081Z,22.50
2023-08-25T01:46:36.429Z,22.50
2023-08-25T01:49:06.198Z,22.50
2023-08-25T01:51:33.999Z,22.50
2023-08-25T01:54:01.205Z,22.50
2023-08-25T01:56:28.309Z,22.50
2023-08-25T01:58:55.547Z,22.50
2023-08-25T02:01:22.749Z,22.50
2023-08-25T02:03:49.954Z,22.50
2023-08-25T02:06:17.390Z,22.40
2023-08-25T02:08:44.658Z,22.40
2023-08-25T02:11:11.795Z,22.40
2023-08-25T02:13:39.164Z,22.40
2023-08-25T02:16:06.627Z,22.30
2023-08-25T02:18:34.034Z,22.30
2023-08-25T02:21:01.273Z,22.30
2023-08-25T02:23:28.805Z,22.30
2023-08-25T02:25:57.263Z,22.20
2023-08-25T02:28:24.474Z,22.20
2023-08-25T02:30:51.729Z,22.20
2023-08-25T02:33:18.929Z,22.20
2023-08-25T02:35:46.490Z,22.10
2023-08-25T02:38:14.154Z,22.10
2023-08-25T02:40:41.424Z,22.10
2023-08-25T02:43:09.391Z,22.10
2023-08-25T02:45:37.985Z,22.10
2023-08-25T02:48:06.009Z,22.00
2023-08-25T02:50:34.849Z,22.00
2023-08-25T02:53:02.091Z,22.00
2023-08-25T02:55:29.265Z,21.90
2023-08-25T02:57:56.922Z,21.90
2023-08-25T03:00:25.010Z,21.90
2023-08-25T03:02:54.243Z,21.90
2023-08-25T03:05:28.274Z,21.80
2023-08-25T03:07:55.932Z,21.80
2023-08-25T03:10:24.374Z,21.80
2023-08-25T03:12:52.377Z,21.80
2023-08-25T03:15:20.203Z,21.70
2023-08-25T03:17:47.629Z,21.70
2023-08-25T03:20:17.528Z,21.70
2023-08-25T03:22:44.664Z,21.60
2023-08-25T03:25:11.726Z,21.60
2023-08-25T03:27:39.431Z,21.60
2023-08-25T03:30:08.118Z,21.60
2023-08-25T03:32:35.485Z,21.60
2023-08-25T03:35:03.125Z,21.50
2023-08-25T03:37:30.503Z,21.50
2023-08-25T03:39:58.024Z,21.50
2023-08-25T03:42:25.214Z,21.50
2023-08-25T03:44:52.413Z,21.50
2023-08-25T03:47:19.658Z,21.50
2023-08-25T03:49:47.138Z,21.40
2023-08-25T03:52:14.511Z,21.40
2023-08-25T03:54:41.629Z,21.40
2023-08-25T03:57:10.196Z,21.40
2023-08-25T03:59:40.533Z,21.40
2023-08-25T04:02:11.014Z,21.40
2023-08-25T04:04:38.933Z,21.40
2023-08-25T04:07:06.137Z,21.40
2023-08-25T04:09:33.422Z,21.40
2023-08-25T04:12:00.681Z,21.30
2023-08-25T04:14:28.038Z,21.30
2023-08-25T04:16:55.370Z,21.30
2023-08-25T04:19:22.945Z,21.30
2023-08-25T04:21:50.672Z,21.20
2023-08-25T04:24:21.011Z,21.20
2023-08-25T04:26:48.460Z,21.20
2023-08-25T04:29:15.695Z,21.20
2023-08-25T04:31:44.809Z,21.10
2023-08-25T04:34:12.741Z,21.10
2023-08-25T04:36:41.143Z,21.10
2023-08-25T04:39:08.816Z,21.10
2023-08-25T04:41:37.718Z,21.00
2023-08-25T04:44:08.061Z,21.00
2023-08-25T04:46:35.437Z,21.00
2023-08-25T04:49:02.633Z,21.00
2023-08-25T04:51:29.827Z,21.00
2023-08-25T04:53:57.107Z,21.00
2023-08-25T04:56:24.646Z,21.00
2023-08-25T04:58:51.908Z,21.00
2023-08-25T05:01:19.308Z,21.00
2023-08-25T05:03:47.292Z,21.00
2023-08-25T05:06:14.922Z,21.00
2023-08-25T05:08:42.155Z,21.00
2023-08-25T05:11:10.671Z,21.00
2023-08-25T05:13:38.330Z,21.00
2023-08-25T05:16:05.981Z,21.00
2023-08-25T05:18:33.492Z,21.00
2023-08-25T05:21:01.801Z,21.00
2023-08-25T05:23:29.548Z,21.00
2023-08-25T05:25:59.500Z,21.00
2023-08-25T05:28:28.152Z,21.00
2023-08-25T05:31:14.377Z,21.00
2023-08-25T05:33:41.542Z,21.00
2023-08-25T05:36:08.845Z,21.10
2023-08-25T05:38:36.013Z,21.10
2023-08-25T05:41:03.258Z,21.10
2023-08-25T05:44:07.904Z,21.20
2023-08-25T05:46:35.478Z,21.20
2023-08-25T05:49:02.847Z,21.30
2023-08-25T05:51:30.195Z,21.40
2023-08-25T05:53:57.505Z,21.50
2023-08-25T05:56:26.763Z,21.50
2023-08-25T05:58:54.257Z,21.60
2023-08-25T06:01:21.788Z,21.60
2023-08-25T06:03:51.705Z,21.70
2023-08-25T06:06:19.132Z,21.80
2023-08-25T06:08:46.406Z,21.90
2023-08-25T06:11:15.127Z,22.00
2023-08-25T06:13:42.462Z,22.10
2023-08-25T06:16:11.127Z,22.30
2023-08-25T06:18:38.952Z,22.40
2023-08-25T06:21:06.163Z,22.60
2023-08-25T06:23:33.401Z,22.80
2023-08-25T06:26:00.601Z,23.00
2023-08-25T06:28:27.877Z,23.30
2023-08-25T06:30:55.715Z,23.50
2023-08-25T06:33:23.122Z,23.70
2023-08-25T06:35:50.947Z,23.90
2023-08-25T06:38:18.176Z,24.00
2023-08-25T06:40:45.745Z,24.10
2023-08-25T06:43:13.008Z,24.20
2023-08-25T06:45:40.506Z,24.20
2023-08-25T06:48:08.138Z,24.20
2023-08-25T06:50:38.897Z,24.10
2023-08-25T06:53:08.103Z,24.10
2023-08-25T06:55:38.577Z,24.10
2023-08-25T06:58:11.691Z,24.00
2023-08-25T07:00:39.693Z,24.00
2023-08-25T07:03:25.726Z,23.90
2023-08-25T07:06:01.292Z,23.90
2023-08-25T07:08:29.127Z,23.80
2023-08-25T07:10:56.981Z,23.70
2023-08-25T07:13:24.877Z,23.60
2023-08-25T07:15:52.702Z,23.50
2023-08-25T07:18:20.531Z,23.40
2023-08-25T07:20:48.495Z,23.30
2023-08-25T07:23:18.297Z,23.20
2023-08-25T07:25:52.456Z,23.10
2023-08-25T07:28:22.896Z,23.00
2023-08-25T07:30:53.400Z,23.00
2023-08-25T07:33:20.884Z,22.90
2023-08-25T07:35:48.292Z,22.90
2023-08-25T07:38:18.965Z,22.80
2023-08-25T07:40:46.227Z,22.80
2023-08-25T07:43:14.166Z,22.70
2023-08-25T07:45:41.594Z,22.70
2023-08-25T07:48:09.856Z,22.60
2023-08-25T07:50:37.194Z,22.60
2023-08-25T07:53:04.822Z,22.60
2023-08-25T07:55:33.703Z,22.50
2023-08-25T07:58:01.075Z,22.50
2023-08-25T08:00:31.724Z,22.50
2023-08-25T08:03:01.565Z,22.50
2023-08-25T08:05:29.486Z,22.40
2023-08-25T08:07:56.960Z,22.40
2023-08-25T08:10:24.580Z,22.40
2023-08-25T08:12:52.250Z,22.40
2023-08-25T08:15:22.934Z,22.40
2023-08-25T08:18:30.269Z,22.40
2023-08-25T08:20:58.264Z,22.40
2023-08-25T08:23:26.199Z,22.40
2023-08-25T08:25:57.090Z,22.40
2023-08-25T08:28:26.580Z,22.40
2023-08-25T08:30:54.079Z,22.50
2023-08-25T08:33:21.362Z,22.50
2023-08-25T08:35:48.726Z,22.50
2023-08-25T08:38:19.200Z,22.60
2023-08-25T08:40:47.587Z,22.60
2023-08-25T08:43:21.870Z,22.70
2023-08-25T08:45:53.625Z,22.80
2023-08-25T08:48:23.216Z,22.80
2023-08-25T08:50:51.417Z,22.80
2023-08-25T08:53:20.147Z,22.80
2023-08-25T08:55:52.850Z,22.90
2023-08-25T09:02:42.682Z,22.80
2023-08-25T09:05:20.275Z,22.80
2023-08-25T09:08:06.175Z,22.80
2023-08-25T09:13:30.888Z,22.70
2023-08-25T09:16:01.136Z,22.60
2023-08-25T09:18:38.009Z,22.60
2023-08-25T09:21:28.495Z,22.40
2023-08-25T09:28:06.761Z,22.30
2023-08-25T09:30:39.976Z,22.20
2023-08-25T09:33:17.026Z,22.10
2023-08-25T09:35:46.212Z,22.10
2023-08-25T09:38:26.202Z,22.00
2023-08-25T09:40:53.954Z,22.00
2023-08-25T09:43:36.540Z,22.00
2023-08-25T09:46:10.593Z,21.90
2023-08-25T09:48:39.241Z,21.90
2023-08-25T09:51:07.663Z,21.90
2023-08-25T09:53:38.229Z,21.80
2023-08-25T09:56:10.033Z,21.80
2023-08-25T09:58:39.757Z,21.80
2023-08-25T10:01:11.377Z,21.80
2023-08-25T10:03:40.359Z,21.80
2023-08-25T10:06:10.279Z,21.80
2023-08-25T10:08:43.422Z,21.80
2023-08-25T10:11:13.095Z,21.80
2023-08-25T10:13:43.096Z,21.80
2023-08-25T10:16:14.241Z,21.80
2023-08-25T10:18:46.859Z,21.80
2023-08-25T10:21:20.265Z,21.80
2023-08-25T10:23:51.512Z,21.90
2023-08-25T10:26:19.946Z,21.80
2023-08-25T10:28:49.324Z,21.80
2023-08-25T10:31:20.808Z,21.80
2023-08-25T10:33:51.912Z,21.70
2023-08-25T10:36:27.378Z,21.70
2023-08-25T10:39:01.273Z,21.70
2023-08-25T10:41:29.769Z,21.70
2023-08-25T10:43:57.713Z,21.70
2023-08-25T10:46:40.100Z,21.70
2023-08-25T10:49:15.660Z,21.80
2023-08-25T10:51:43.468Z,21.80
2023-08-25T10:54:25.133Z,21.80
2023-08-25T10:56:52.809Z,21.80
2023-08-25T10:59:26.162Z,21.80
2023-08-25T11:02:00.183Z,21.90
2023-08-25T11:04:31.634Z,21.90
2023-08-25T11:07:00.845Z,21.90
2023-08-25T11:09:28.168Z,22.00
2023-08-25T11:12:08.290Z,22.00
2023-08-25T11:14:48.429Z,22.00
2023-08-25T11:17:28.021Z,22.00
2023-08-25T11:19:55.880Z,22.00
2023-08-25T11:22:23.367Z,22.10
2023-08-25T11:25:03.587Z,22.10
2023-08-25T11:31:31.865Z,22.10
2023-08-25T11:33:59.475Z,22.10
2023-08-25T11:36:29.997Z,22.10
2023-08-25T11:39:00.742Z,22.10
2023-08-25T11:41:29.780Z,22.10
2023-08-25T11:43:57.554Z,22.10
2023-08-25T11:46:27.813Z,22.20
2023-08-25T11:48:56.798Z,22.20
2023-08-25T11:51:24.709Z,22.30
2023-08-25T11:53:52.534Z,22.30
2023-08-25T11:56:20.959Z,22.40
2023-08-25T11:58:49.730Z,22.40
2023-08-25T12:01:20.143Z,22.50
2023-08-25T12:03:49.171Z,22.50
2023-08-25T12:06:17.278Z,22.60
2023-08-25T12:08:44.891Z,22.60
2023-08-25T12:11:12.401Z,22.70
2023-08-25T12:13:48.115Z,22.70
2023-08-25T12:16:19.797Z,22.80
2023-08-25T12:18:53.298Z,22.80
2023-08-25T12:21:23.765Z,22.90
2023-08-25T12:23:54.270Z,23.10
2023-08-25T12:26:21.895Z,23.30
2023-08-25T12:28:49.340Z,23.50
2023-08-25T12:31:16.989Z,23.80
2023-08-25T12:33:44.729Z,24.20
2023-08-25T12:36:12.350Z,24.60
2023-08-25T12:38:39.927Z,25.10
2023-08-25T12:41:07.516Z,25.50
2023-08-25T12:43:36.877Z,25.90
2023-08-25T12:46:04.404Z,26.20
2023-08-25T12:48:33.746Z,26.40
2023-08-25T12:51:01.651Z,26.60
2023-08-25T12:53:28.934Z,26.70
2023-08-25T12:55:56.440Z,26.80
2023-08-25T12:58:23.648Z,26.90
2023-08-25T13:00:53.353Z,27.10
2023-08-25T13:03:22.536Z,27.30
2023-08-25T13:05:49.988Z,27.50
2023-08-25T13:08:17.755Z,27.80
2023-08-25T13:10:57.937Z,28.20
2023-08-25T13:13:25.375Z,28.50
2023-08-25T13:15:52.700Z,29.00
2023-08-25T13:18:20.179Z,29.30
2023-08-25T13:20:49.177Z,29.60
2023-08-25T13:23:33.231Z,29.80
2023-08-25T13:26:05.318Z,29.90
2023-08-25T13:43:39.925Z,29.60
2023-08-25T13:46:08.670Z,29.90
2023-08-25T13:48:39.728Z,30.00
2023-08-25T13:51:08.253Z,30.10
2023-08-25T13:53:37.678Z,30.10
2023-08-25T13:56:05.951Z,30.00
2023-08-25T13:58:34.153Z,29.90
2023-08-25T14:01:04.289Z,29.80
2023-08-25T14:03:59.436Z,29.60
2023-08-25T14:06:28.018Z,29.50
2023-08-25T14:08:55.542Z,29.30
2023-08-25T14:11:24.700Z,29.10
2023-08-25T14:14:34.337Z,29.00
2023-08-25T14:17:02.158Z,28.90
2023-08-25T14:20:00.776Z,28.70
2023-08-25T14:23:26.851Z,28.60
2023-08-25T14:26:05.014Z,28.40
2023-08-25T14:28:35.149Z,28.30
2023-08-25T14:31:06.823Z,28.20
2023-08-25T14:33:40.651Z,28.10
2023-08-25T14:36:15.475Z,28.10
2023-08-25T14:38:42.917Z,28.10
2023-08-25T14:41:12.626Z,28.00
2023-08-25T14:43:40.656Z,28.00
2023-08-25T14:46:11.065Z,28.00
2023-08-25T14:48:40.850Z,28.00
2023-08-25T14:51:08.452Z,28.00
2023-08-25T14:53:48.578Z,28.00
2023-08-25T14:56:16.070Z,28.00
2023-08-25T14:58:43.451Z,28.00
2023-08-25T15:01:11.000Z,28.10
2023-08-25T15:03:41.383Z,28.10
2023-08-25T15:06:27.183Z,28.10
2023-08-25T15:08:55.491Z,28.20
2023-08-25T15:11:22.925Z,28.30
2023-08-25T15:13:50.717Z,28.30
2023-08-25T15:16:18.586Z,28.40
2023-08-25T15:22:50.140Z,28.50
2023-08-25T15:29:31.136Z,28.70
2023-08-25T15:32:10.162Z,28.70
2023-08-25T15:34:37.910Z,28.70
2023-08-25T15:37:05.624Z,28.70
2023-08-25T15:39:40.074Z,28.80
2023-08-25T15:42:08.244Z,28.90
2023-08-25T15:44:46.506Z,29.00
2023-08-25T15:47:44.111Z,29.10
2023-08-25T15:50:15.311Z,29.30
2023-08-25T15:52:45.674Z,29.30
2023-08-25T15:55:16.723Z,29.40
2023-08-25T15:58:04.036Z,29.40
2023-08-25T16:00:41.227Z,29.50
2023-08-25T16:03:10.140Z,29.60
2023-08-25T16:05:56.901Z,29.60
2023-08-25T16:08:55.706Z,29.70
2023-08-25T16:11:39.000Z,29.60
2023-08-25T16:14:13.765Z,29.60
2023-08-25T16:17:23.327Z,29.60
2023-08-25T16:20:10.068Z,29.50
2023-08-25T16:23:03.215Z,29.40
2023-08-25T16:25:55.324Z,29.40
2023-08-25T16:28:34.778Z,29.30
2023-08-25T16:31:41.779Z,29.30
2023-08-25T16:34:44.693Z,29.30
2023-08-25T16:37:15.618Z,29.30
2023-08-25T16:39:58.325Z,29.40
2023-08-25T16:45:55.660Z,29.40
2023-08-25T16:48:53.577Z,29.50
2023-08-25T16:51:22.438Z,29.40
2023-08-25T16:54:42.448Z,29.40
2023-08-25T16:57:38.449Z,29.30
2023-08-25T17:00:07.309Z,29.10
2023-08-25T17:02:36.944Z,29.00
2023-08-25T17:05:13.320Z,28.90
2023-08-25T17:08:13.968Z,28.80
2023-08-25T17:11:00.830Z,28.70
2023-08-25T17:13:45.908Z,28.60
2023-08-25T17:16:29.430Z,28.50
2023-08-25T17:18:59.620Z,28.30
2023-08-25T17:21:36.765Z,28.20
2023-08-25T17:24:29.979Z,28.10
2023-08-25T17:26:58.851Z,28.00
2023-08-25T17:29:26.437Z,27.90
2023-08-25T17:31:56.283Z,27.80
2023-08-25T17:34:23.756Z,27.70
2023-08-25T17:36:53.534Z,27.60
2023-08-25T17:39:22.501Z,27.50
2023-08-25T17:41:54.560Z,27.40
2023-08-25T17:52:35.158Z,27.20
2023-08-25T17:55:04.340Z,27.10
2023-08-25T17:57:33.542Z,27.00
2023-08-25T18:00:01.043Z,26.90
2023-08-25T18:02:28.542Z,26.80
2023-08-25T18:04:56.282Z,26.80
2023-08-25T18:07:24.045Z,26.70
2023-08-25T18:09:51.932Z,26.60
2023-08-25T18:12:22.313Z,26.50
2023-08-25T18:14:50.147Z,26.40
2023-08-25T18:17:17.441Z,26.30
2023-08-25T18:19:44.907Z,26.30
2023-08-25T18:22:14.263Z,26.10
2023-08-25T18:24:41.596Z,26.00
2023-08-25T18:27:09.064Z,25.90
2023-08-25T18:29:36.405Z,25.80
2023-08-25T18:32:03.963Z,25.70
2023-08-25T18:34:31.284Z,25.60
2023-08-25T18:36:59.255Z,25.50
2023-08-25T18:39:26.618Z,25.40
2023-08-25T18:41:53.959Z,25.30
2023-08-25T18:44:21.430Z,25.20
2023-08-25T18:46:49.237Z,25.20
2023-08-25T18:49:16.530Z,25.00
2023-08-25T18:51:47.158Z,25.00
2023-08-25T18:54:14.698Z,24.90
2023-08-25T18:56:42.279Z,24.80
2023-08-25T18:59:09.955Z,24.70
2023-08-25T19:01:37.339Z,24.60
2023-08-25T19:04:05.113Z,24.60
2023-08-25T19:06:32.429Z,24.50
2023-08-25T19:09:00.302Z,24.50
2023-08-25T19:11:28.234Z,24.40
2023-08-25T19:13:55.557Z,24.40
2023-08-25T19:16:23.021Z,24.30
2023-08-25T19:18:50.631Z,24.30
2023-08-25T19:21:18.387Z,24.30
2023-08-25T19:23:46.253Z,24.30
2023-08-25T19:30:13.675Z,24.20
2023-08-25T19:32:41.962Z,24.20
2023-08-25T19:35:10.117Z,24.20
2023-08-25T19:37:37.679Z,24.20
2023-08-25T19:40:11.771Z,24.10
2023-08-25T19:42:39.370Z,24.10
2023-08-25T19:45:08.674Z,24.10
2023-08-25T19:47:36.067Z,24.10
2023-08-25T19:50:03.951Z,24.00
2023-08-25T19:52:31.357Z,24.00
2023-08-25T19:54:59.085Z,24.00
2023-08-25T19:57:26.568Z,24.00
2023-08-25T19:59:56.698Z,24.00
2023-08-25T20:02:24.734Z,23.90
2023-08-25T20:08:51.794Z,23.90
2023-08-25T20:11:21.341Z,23.90
2023-08-25T20:13:48.818Z,23.90
2023-08-25T20:16:17.171Z,23.90
2023-08-25T20:18:44.539Z,24.00
2023-08-25T20:21:14.024Z,23.90
2023-08-25T20:23:41.429Z,23.90
2023-08-25T20:26:09.889Z,23.90
2023-08-25T20:32:47.301Z,23.90
2023-08-25T20:39:57.079Z,23.90
2023-08-25T20:46:27.070Z,23.80
2023-08-25T20:48:54.806Z,23.80
2023-08-25T20:55:33.186Z,23.80
2023-08-25T20:58:00.996Z,23.70
2023-08-25T21:00:29.016Z,23.70
2023-08-25T21:03:00.106Z,23.70
2023-08-25T21:05:27.750Z,23.70
2023-08-25T21:07:55.009Z,23.70
2023-08-25T21:10:23.782Z,23.70
2023-08-25T21:17:02.204Z,23.60
2023-08-25T21:19:29.523Z,23.60
2023-08-25T21:21:59.702Z,23.60
2023-08-25T21:24:27.238Z,23.60
2023-08-25T21:26:55.423Z,23.50
2023-08-25T21:29:22.919Z,23.50
2023-08-25T21:31:51.316Z,23.50
2023-08-25T21:34:26.383Z,23.40
2023-08-25T21:36:58.150Z,23.40
2023-08-25T21:39:37.455Z,23.30
2023-08-25T21:42:08.900Z,23.20
2023-08-25T21:44:36.749Z,23.20
2023-08-25T21:47:07.782Z,23.10
2023-08-25T21:53:48.083Z,22.90
2023-08-25T21:56:15.410Z,22.80
2023-08-25T21:58:43.219Z,22.80
2023-08-25T22:01:11.353Z,22.70
2023-08-25T22:03:39.309Z,22.60
2023-08-25T22:06:06.696Z,22.60
2023-08-25T22:08:36.063Z,22.60
2023-08-25T22:11:24.759Z,22.50
2023-08-25T22:13:52.216Z,22.50
2023-08-25T22:16:19.864Z,22.50
2023-08-25T22:22:57.753Z,22.40
2023-08-25T22:25:25.424Z,22.40
2023-08-25T22:27:55.388Z,22.30
2023-08-25T22:30:23.042Z,22.30
2023-08-25T22:35:22.941Z,22.30
2023-08-25T22:38:09.911Z,22.30
2023-08-25T22:40:37.509Z,22.30
2023-08-25T22:43:13.212Z,22.30
2023-08-25T22:45:40.770Z,22.30
2023-08-25T22:48:08.523Z,22.20
2023-08-25T22:50:35.807Z,22.30
2023-08-25T22:53:03.144Z,22.30
2023-08-25T22:55:30.476Z,22.20
2023-08-25T22:57:57.762Z,22.30
2023-08-25T23:00:28.338Z,22.20
2023-08-25T23:02:56.913Z,22.20
2023-08-25T23:05:24.736Z,22.20
2023-08-25T23:07:52.044Z,22.20
2023-08-25T23:10:20.833Z,22.20
2023-08-25T23:12:48.336Z,22.20
2023-08-25T23:15:15.587Z,22.20
2023-08-25T23:17:42.779Z,22.20
2023-08-25T23:20:11.310Z,22.20
2023-08-25T23:22:38.756Z,22.10
2023-08-25T23:25:06.674Z,22.10
2023-08-25T23:27:33.878Z,22.10
2023-08-25T23:30:08.430Z,22.10
2023-08-25T23:32:35.948Z,22.10
2023-08-25T23:35:03.536Z,22.10
2023-08-25T23:37:30.936Z,22.10
2023-08-25T23:40:05.224Z,22.00
2023-08-25T23:42:32.551Z,22.00
2023-08-25T23:44:59.821Z,22.00
2023-08-25T23:47:27.426Z,22.00
2023-08-25T23:49:57.844Z,22.00
2023-08-25T23:52:28.013Z,22.00
2023-08-25T23:54:58.146Z,21.90
2023-08-25T23:57:33.985Z,21.90
